To NAV CANADA Home Page Login to a new session Search on AWWS site Feedback and Comments Disclaimer Vers la page française équivalente Tips FAQ What's new on the site To the Forecasts and Observations / NOTAM section To "File a Flight Plan" website Publications and other links Update of the User's profile FIC Telephone Numbers My Weather Data Folder Route Weather Data Regional Weather Data Local Weather Data To the Forecasts and Observations / NOTAM section
Request Generated 04/25/2015 at 10:56:55 UTC . Weather information available at that time is displayed.

METAR/TAF

ROBERVAL/QC    

METAR CYRJ 251000Z 32010KT 12SM -RA OVC010 02/01 A2972 RMK SF8
SLP073=
METAR CYRJ 250900Z 32011KT 12SM -RA BKN012 02/01 A2971 RMK SF7
SLP070=
METAR CYRJ 250800Z 32011G16KT 10SM -RA OVC007 02/01 A2971 RMK SF8
SLP067=

*** REMARK        : Forecast period has ended; this was the last TAF issued
*** REMARQUE : La période de prévision est échue; ceci était le dernier TAF qui a été émis
TAF CYRJ 241938Z 2420/2502 30010KT P6SM -RA SCT008 OVC015 TEMPO
2420/2502 4SM -SHRA BR BKN008 OVC015
RMK NXT FCST WILL BE ISSUED AT 251145Z=
Your time UTC time
Weather data provided by Environment Canada and NAV CANADA